Time;durP1;ratioP1;P1;durP2;ratioP2;P2;SDS_P1;SDS_P2;PMS_P1;PMS_P2;Temp;Humidity;BMP_temperature;BMP_pressure;BME280_temperature;BME280_humidity;BME280_pressure;Samples;Min_cycle;Max_cycle;Signal;HPM_P1;HPM_P2
2023/07/11 00:02:16;;;;;;;13.70;3.40;;;19.30;94.60;;;;;;5051546;28;20201;-67
2023/07/11 00:04:42;;;;;;;3.17;1.70;;;19.20;94.70;;;;;;5051931;28;20605;-68
2023/07/11 00:07:07;;;;;;;5.00;2.47;;;19.20;94.90;;;;;;5051246;28;20197;-68
2023/07/11 00:09:33;;;;;;;5.67;2.53;;;19.10;95.00;;;;;;5049923;28;20170;-67
2023/07/11 00:11:59;;;;;;;6.60;3.07;;;19.00;95.30;;;;;;5051154;28;20643;-67
2023/07/11 00:14:24;;;;;;;6.30;2.10;;;19.00;95.20;;;;;;5051651;28;20243;-67
2023/07/11 00:16:50;;;;;;;4.63;2.43;;;18.90;95.40;;;;;;5051679;28;20264;-67
2023/07/11 00:19:16;;;;;;;4.43;2.50;;;18.90;95.70;;;;;;5051694;28;20695;-67
2023/07/11 00:21:41;;;;;;;5.63;2.47;;;18.90;95.80;;;;;;5050931;28;20277;-67
2023/07/11 00:24:07;;;;;;;4.53;2.50;;;18.90;96.00;;;;;;5049500;28;20185;-67
2023/07/11 00:26:34;;;;;;;5.17;2.57;;;18.90;95.90;;;;;;5043788;28;20645;-67
2023/07/11 00:29:19;;;;;;;4.97;2.60;;;18.90;96.00;;;;;;5051536;28;20231;-68
2023/07/11 00:31:44;;;;;;;4.53;1.60;;;18.80;96.20;;;;;;5050066;28;20507;-68
2023/07/11 00:34:10;;;;;;;4.13;2.40;;;18.80;96.40;;;;;;5039285;28;20999;-67
2023/07/11 00:36:36;;;;;;;7.30;2.33;;;18.80;96.10;;;;;;5051307;28;20185;-68
2023/07/11 00:39:02;;;;;;;3.90;2.23;;;18.80;96.20;;;;;;5051567;28;20556;-67
2023/07/11 00:41:28;;;;;;;3.10;1.47;;;18.80;96.40;;;;;;5050503;28;20184;-67
2023/07/11 00:43:54;;;;;;;5.20;1.67;;;18.70;96.70;;;;;;5050789;28;20951;-68
2023/07/11 00:46:19;;;;;;;4.63;2.57;;;18.70;96.90;;;;;;5050496;28;20185;-67
2023/07/11 00:48:58;;;;;;;5.03;2.13;;;18.70;96.90;;;;;;5046856;28;20285;-67
2023/07/11 00:51:33;;;;;;;4.20;2.20;;;18.70;97.00;;;;;;5030251;28;20181;-68
2023/07/11 00:54:00;;;;;;;4.30;2.20;;;18.70;97.20;;;;;;5031097;28;20461;-68
2023/07/11 00:56:29;;;;;;;6.17;2.27;;;18.60;97.50;;;;;;5030084;28;20921;-67
2023/07/11 00:58:56;;;;;;;3.60;2.07;;;18.60;97.40;;;;;;5030679;28;20491;-67
2023/07/11 01:01:23;;;;;;;5.13;2.30;;;18.50;97.30;;;;;;5029684;28;20433;-67
2023/07/11 01:03:52;;;;;;;10.00;2.30;;;18.50;97.20;;;;;;5029950;28;20801;-67
2023/07/11 01:06:21;;;;;;;5.20;2.00;;;18.50;97.10;;;;;;5030714;28;20437;-68
2023/07/11 01:08:49;;;;;;;2.60;1.83;;;18.50;97.10;;;;;;5035537;28;20449;-67
2023/07/11 01:11:15;;;;;;;3.70;1.73;;;18.50;97.00;;;;;;5030146;28;20459;-68
2023/07/11 01:13:40;;;;;;;5.17;2.37;;;18.50;96.90;;;;;;5031192;28;20493;-67
2023/07/11 01:16:06;;;;;;;5.83;2.30;;;18.50;96.90;;;;;;5030617;28;20556;-68
2023/07/11 01:18:32;;;;;;;6.93;2.80;;;18.40;97.00;;;;;;5031445;28;20265;-67
2023/07/11 01:20:58;;;;;;;3.73;2.43;;;18.40;97.30;;;;;;5029691;28;20182;-67
2023/07/11 01:23:24;;;;;;;5.10;3.00;;;18.40;97.40;;;;;;5030658;28;20236;-68
2023/07/11 01:25:57;;;;;;;5.10;2.17;;;18.30;97.20;;;;;;5025829;28;20700;-67
2023/07/11 01:28:25;;;;;;;5.30;2.60;;;18.30;97.30;;;;;;5030997;28;20265;-67
2023/07/11 01:30:50;;;;;;;5.77;3.60;;;18.30;97.20;;;;;;5030331;28;20425;-67
2023/07/11 01:33:16;;;;;;;6.80;3.70;;;18.30;97.30;;;;;;5030729;28;20472;-67
2023/07/11 01:35:42;;;;;;;8.00;3.97;;;18.20;97.00;;;;;;5031068;28;20185;-67
2023/07/11 01:38:08;;;;;;;6.80;3.50;;;18.20;96.90;;;;;;5030727;28;20417;-67
2023/07/11 01:40:33;;;;;;;7.27;3.57;;;18.10;97.30;;;;;;5030405;28;20188;-68
2023/07/11 01:42:59;;;;;;;8.73;3.17;;;18.10;97.50;;;;;;5031294;28;20190;-67
2023/07/11 01:45:25;;;;;;;5.60;3.03;;;18.10;97.70;;;;;;5024638;28;20187;-67
2023/07/11 01:47:51;;;;;;;6.43;2.63;;;18.10;97.80;;;;;;5025155;28;20413;-67
2023/07/11 01:50:16;;;;;;;7.23;3.20;;;18.10;98.00;;;;;;5031756;28;20661;-68
2023/07/11 01:52:42;;;;;;;4.30;2.47;;;18.00;97.90;;;;;;5031600;28;20209;-67
2023/07/11 01:55:10;;;;;;;10.63;3.00;;;18.00;98.00;;;;;;5034848;28;20631;-67
2023/07/11 01:57:35;;;;;;;4.33;2.50;;;18.00;98.00;;;;;;5036530;28;20265;-67
2023/07/11 02:00:01;;;;;;;7.00;3.27;;;18.00;98.30;;;;;;5034440;28;20992;-68
2023/07/11 02:02:27;;;;;;;6.20;3.43;;;18.00;98.40;;;;;;5033322;28;20209;-67
2023/07/11 02:04:52;;;;;;;6.00;3.27;;;18.00;98.40;;;;;;5034810;28;20174;-68
2023/07/11 02:07:18;;;;;;;4.77;2.67;;;18.00;98.20;;;;;;5032824;28;20183;-67
2023/07/11 02:09:44;;;;;;;7.53;3.97;;;17.90;98.60;;;;;;5040385;28;20552;-67
2023/07/11 02:12:10;;;;;;;4.63;2.50;;;17.80;98.60;;;;;;5033901;28;20281;-68
2023/07/11 02:14:40;;;;;;;7.00;3.53;;;17.80;98.90;;;;;;5033999;28;20178;-67
2023/07/11 02:17:07;;;;;;;7.37;3.20;;;17.80;99.10;;;;;;5033817;28;20413;-67
2023/07/11 02:19:34;;;;;;;5.43;2.50;;;17.70;99.40;;;;;;5033919;28;20409;-67
2023/07/11 02:22:00;;;;;;;6.53;3.10;;;17.70;99.30;;;;;;5032897;28;20419;-67
2023/07/11 02:24:25;;;;;;;8.40;4.00;;;17.60;99.50;;;;;;5033979;28;20504;-67
2023/07/11 02:26:52;;;;;;;7.60;3.60;;;17.60;99.60;;;;;;5033863;28;20286;-67
2023/07/11 02:29:18;;;;;;;9.23;3.40;;;17.60;99.70;;;;;;5034256;28;20182;-68
2023/07/11 02:31:43;;;;;;;8.50;4.37;;;17.60;99.80;;;;;;5019307;28;20421;-67
2023/07/11 02:34:09;;;;;;;6.00;3.80;;;17.60;99.80;;;;;;5033774;28;20245;-67
2023/07/11 02:36:35;;;;;;;5.93;3.43;;;17.60;99.90;;;;;;5033312;28;20573;-67
2023/07/11 02:39:00;;;;;;;5.83;3.30;;;17.60;99.90;;;;;;5033758;28;20643;-68
2023/07/11 02:41:26;;;;;;;5.17;3.10;;;17.40;99.90;;;;;;5033009;28;20178;-68
2023/07/11 02:43:52;;;;;;;6.43;2.83;;;17.50;99.90;;;;;;5033935;28;20548;-68
2023/07/11 02:46:18;;;;;;;5.03;3.03;;;17.50;99.90;;;;;;5033126;28;20189;-68
2023/07/11 02:48:45;;;;;;;5.00;3.43;;;17.40;99.90;;;;;;5032440;28;20430;-68
2023/07/11 02:51:11;;;;;;;8.03;3.37;;;17.40;99.90;;;;;;5032108;28;20220;-67
2023/07/11 02:53:37;;;;;;;7.00;3.20;;;17.40;99.90;;;;;;5029796;28;20457;-67
2023/07/11 02:56:02;;;;;;;3.83;2.10;;;17.40;99.90;;;;;;5026385;28;20806;-67
2023/07/11 02:58:28;;;;;;;4.00;2.30;;;17.40;99.90;;;;;;5027201;28;20197;-67
2023/07/11 03:00:56;;;;;;;6.97;3.23;;;17.40;99.90;;;;;;5028634;28;20638;-67
2023/07/11 03:03:22;;;;;;;5.13;2.67;;;17.50;99.90;;;;;;5033006;28;20309;-67
2023/07/11 03:05:49;;;;;;;5.03;2.90;;;17.50;99.90;;;;;;5032638;28;20439;-68
2023/07/11 03:08:15;;;;;;;7.40;3.80;;;17.50;99.90;;;;;;5038546;28;20420;-67
2023/07/11 03:10:41;;;;;;;7.93;3.33;;;17.50;99.90;;;;;;5032467;28;20547;-67
2023/07/11 03:13:07;;;;;;;8.87;4.30;;;17.50;99.90;;;;;;5032996;28;20509;-67
2023/07/11 03:15:34;;;;;;;11.27;4.20;;;17.60;99.90;;;;;;5032900;28;20870;-68
2023/07/11 03:18:00;;;;;;;7.37;3.87;;;17.60;99.90;;;;;;5032919;28;20174;-67
2023/07/11 03:20:26;;;;;;;8.83;3.67;;;17.60;99.90;;;;;;5033057;28;20419;-67
2023/07/11 03:22:51;;;;;;;7.70;3.43;;;17.60;99.90;;;;;;5032051;28;20649;-67
2023/07/11 03:25:17;;;;;;;5.43;2.80;;;17.70;99.90;;;;;;5032888;28;20233;-67
2023/07/11 03:27:42;;;;;;;10.20;4.00;;;17.70;99.90;;;;;;5033158;28;20690;-67
2023/07/11 03:30:08;;;;;;;8.87;3.37;;;17.70;99.90;;;;;;5032854;28;20186;-68
2023/07/11 03:32:34;;;;;;;8.47;3.63;;;17.70;99.90;;;;;;5032075;28;20214;-67
2023/07/11 03:35:00;;;;;;;6.47;3.33;;;17.70;99.90;;;;;;5033110;28;20741;-67
2023/07/11 03:37:25;;;;;;;5.37;3.00;;;17.70;99.90;;;;;;5032411;28;20179;-68
2023/07/11 03:39:51;;;;;;;14.30;3.07;;;17.70;99.90;;;;;;5032624;28;20263;-67
2023/07/11 03:42:16;;;;;;;5.97;3.70;;;17.70;99.90;;;;;;5032175;28;20682;-68
2023/07/11 03:44:43;;;;;;;5.67;3.40;;;17.70;99.90;;;;;;5032882;28;20236;-67
2023/07/11 03:47:08;;;;;;;8.80;3.60;;;17.70;99.90;;;;;;5032231;28;20193;-67
2023/07/11 03:49:34;;;;;;;5.23;2.97;;;17.70;99.90;;;;;;5032534;28;20413;-67
2023/07/11 03:52:01;;;;;;;9.10;3.70;;;17.70;99.90;;;;;;5031484;28;20186;-68
2023/07/11 03:54:26;;;;;;;9.40;3.80;;;17.80;99.90;;;;;;5032091;28;20456;-68
2023/07/11 03:56:52;;;;;;;10.40;4.23;;;17.80;99.90;;;;;;5032340;28;20743;-67
2023/07/11 03:59:19;;;;;;;5.40;2.90;;;17.80;99.90;;;;;;5032261;28;20185;-67
2023/07/11 04:01:44;;;;;;;6.53;3.70;;;17.80;99.90;;;;;;5031474;28;20475;-67
2023/07/11 04:04:10;;;;;;;7.20;2.70;;;17.80;99.90;;;;;;5032256;28;20959;-67
2023/07/11 04:06:36;;;;;;;4.97;2.90;;;17.90;99.90;;;;;;5031719;28;20197;-68
2023/07/11 04:09:02;;;;;;;6.40;2.80;;;17.80;99.90;;;;;;5038174;28;20217;-67
2023/07/11 04:11:27;;;;;;;5.23;3.20;;;17.90;99.90;;;;;;5031571;28;20532;-67
2023/07/11 04:13:53;;;;;;;5.20;2.73;;;17.90;99.90;;;;;;5031796;28;20210;-67
2023/07/11 04:16:19;;;;;;;8.10;2.90;;;18.00;99.90;;;;;;5030795;28;20524;-67
2023/07/11 04:18:44;;;;;;;5.87;3.30;;;18.00;99.90;;;;;;5031636;28;20650;-68
2023/07/11 04:21:10;;;;;;;6.37;2.90;;;18.10;99.90;;;;;;5031284;28;20213;-68
2023/07/11 04:23:36;;;;;;;8.87;3.60;;;18.20;99.90;;;;;;5030913;28;20181;-68
2023/07/11 04:26:01;;;;;;;4.80;2.97;;;18.20;99.90;;;;;;5032195;28;20651;-67
2023/07/11 04:28:27;;;;;;;8.20;3.40;;;18.20;99.90;;;;;;5031879;28;20182;-68
2023/07/11 04:30:52;;;;;;;7.43;3.40;;;18.20;99.90;;;;;;5031054;28;20183;-68
2023/07/11 04:33:18;;;;;;;5.53;3.23;;;18.30;99.90;;;;;;5031562;28;20221;-68
2023/07/11 04:35:44;;;;;;;6.90;2.77;;;18.30;99.90;;;;;;5031580;28;20175;-67
2023/07/11 04:38:10;;;;;;;9.70;3.97;;;18.40;99.90;;;;;;5030978;28;20182;-67
2023/07/11 04:40:36;;;;;;;4.63;2.60;;;18.40;99.90;;;;;;5019556;28;20413;-67
2023/07/11 04:43:02;;;;;;;5.60;3.57;;;18.40;99.90;;;;;;5031122;28;20182;-67
2023/07/11 04:45:27;;;;;;;4.30;2.63;;;18.50;99.90;;;;;;5030832;28;20749;-67
2023/07/11 04:47:53;;;;;;;6.87;3.67;;;18.50;99.90;;;;;;5024497;28;20190;-67
2023/07/11 04:50:19;;;;;;;6.03;3.40;;;18.60;99.90;;;;;;5030998;28;20546;-67
2023/07/11 04:52:45;;;;;;;5.00;2.70;;;18.60;99.90;;;;;;5028938;28;20453;-67
2023/07/11 04:55:11;;;;;;;4.43;2.93;;;18.70;99.90;;;;;;5031370;28;20178;-67
2023/07/11 04:57:37;;;;;;;4.50;2.97;;;18.70;99.90;;;;;;5031040;28;20467;-67
2023/07/11 05:00:03;;;;;;;4.50;2.90;;;18.70;99.90;;;;;;5026239;28;20426;-67
2023/07/11 05:02:29;;;;;;;9.40;3.97;;;18.80;99.90;;;;;;5030454;28;20184;-67
2023/07/11 05:04:55;;;;;;;9.60;3.70;;;18.80;99.90;;;;;;5036563;28;20409;-68
2023/07/11 05:07:20;;;;;;;10.67;4.57;;;18.90;99.90;;;;;;5031962;28;20178;-67
2023/07/11 05:09:46;;;;;;;5.07;2.80;;;18.90;99.90;;;;;;5036465;28;20178;-68
2023/07/11 05:12:11;;;;;;;6.23;3.70;;;19.10;99.90;;;;;;5030512;28;20191;-67
2023/07/11 05:14:37;;;;;;;7.43;4.07;;;19.10;99.90;;;;;;5031067;28;20718;-68
2023/07/11 05:17:03;;;;;;;15.10;3.70;;;19.20;99.90;;;;;;5030689;28;20186;-67
2023/07/11 05:19:29;;;;;;;9.43;4.20;;;19.20;99.90;;;;;;5025891;28;20421;-68
2023/07/11 05:21:55;;;;;;;6.50;3.30;;;19.40;99.90;;;;;;5026174;28;20567;-68
2023/07/11 05:24:20;;;;;;;6.73;2.80;;;19.40;99.90;;;;;;5027863;28;20212;-67
2023/07/11 05:26:46;;;;;;;7.00;3.50;;;19.50;99.90;;;;;;5020972;28;20190;-67
2023/07/11 05:29:11;;;;;;;9.23;3.27;;;19.60;99.90;;;;;;5030685;28;20502;-68
2023/07/11 05:31:37;;;;;;;5.77;3.07;;;19.70;99.90;;;;;;5029948;28;20669;-67
2023/07/11 05:34:03;;;;;;;6.63;2.57;;;19.70;99.90;;;;;;5030477;28;20273;-67
2023/07/11 05:36:32;;;;;;;4.83;3.10;;;19.80;99.90;;;;;;5030148;28;20197;-67
2023/07/11 05:39:17;;;;;;;5.50;2.90;;;19.90;99.90;;;;;;5030165;28;20474;-68
2023/07/11 05:41:47;;;;;;;6.97;3.10;;;19.90;99.90;;;;;;5029805;28;21062;-67
2023/07/11 05:44:13;;;;;;;3.37;1.93;;;20.00;99.90;;;;;;5030821;28;20877;-67
2023/07/11 05:46:40;;;;;;;4.57;2.57;;;20.10;99.90;;;;;;5030445;28;20563;-67
2023/07/11 05:49:06;;;;;;;5.23;2.87;;;20.20;99.90;;;;;;5030597;28;20424;-67
2023/07/11 05:51:32;;;;;;;5.90;2.63;;;20.30;99.90;;;;;;5030063;28;20787;-68
2023/07/11 05:53:58;;;;;;;5.93;2.70;;;20.40;99.90;;;;;;5030574;28;20965;-67
2023/07/11 05:56:24;;;;;;;5.10;2.77;;;20.50;99.90;;;;;;5030618;28;20194;-67
2023/07/11 05:58:52;;;;;;;3.23;2.37;;;20.60;99.90;;;;;;5028313;28;20441;-67
2023/07/11 06:01:21;;;;;;;5.60;3.00;;;20.70;99.90;;;;;;5028237;28;20207;-68
2023/07/11 06:03:51;;;;;;;6.70;2.73;;;20.70;99.90;;;;;;5025701;28;20964;-68
2023/07/11 06:06:18;;;;;;;4.90;2.73;;;20.90;99.90;;;;;;5027549;28;20425;-71
2023/07/11 06:08:44;;;;;;;6.60;2.83;;;21.00;99.10;;;;;;5031931;28;20773;-73
2023/07/11 06:11:10;;;;;;;4.23;2.50;;;21.10;99.50;;;;;;5028508;28;20928;-73
2023/07/11 06:13:38;;;;;;;8.50;3.40;;;21.20;98.90;;;;;;5031803;28;20289;-73
2023/07/11 06:16:15;;;;;;;5.43;2.90;;;21.30;98.60;;;;;;5033258;28;20419;-73
2023/07/11 06:18:41;;;;;;;6.57;3.50;;;21.50;98.60;;;;;;5030935;28;20425;-73
2023/07/11 06:21:09;;;;;;;5.87;3.47;;;21.60;98.40;;;;;;5029936;28;20421;-73
2023/07/11 06:23:35;;;;;;;6.47;2.97;;;21.80;98.10;;;;;;5030348;28;20422;-73
2023/07/11 06:26:01;;;;;;;5.40;3.07;;;21.90;98.20;;;;;;5030630;28;20549;-73
2023/07/11 06:28:27;;;;;;;5.57;3.13;;;22.10;97.70;;;;;;5030342;28;20433;-73
2023/07/11 06:31:00;;;;;;;6.23;2.80;;;22.20;97.60;;;;;;5030820;28;20424;-73
2023/07/11 06:33:26;;;;;;;13.40;3.37;;;22.40;97.00;;;;;;5030892;28;20206;-73
2023/07/11 06:35:52;;;;;;;6.90;3.40;;;22.50;96.70;;;;;;5028387;28;20413;-72
2023/07/11 06:38:19;;;;;;;4.50;2.90;;;22.70;95.30;;;;;;5026468;28;20452;-73
2023/07/11 06:40:55;;;;;;;8.57;3.03;;;23.00;94.70;;;;;;5031953;28;20174;-73
2023/07/11 06:43:23;;;;;;;4.33;2.43;;;23.10;94.00;;;;;;5033971;28;20424;-73
2023/07/11 06:45:50;;;;;;;6.53;2.93;;;23.20;93.80;;;;;;5027368;28;20460;-73
2023/07/11 06:48:18;;;;;;;5.90;3.47;;;23.40;93.50;;;;;;5026762;28;20420;-73
2023/07/11 06:50:52;;;;;;;9.37;3.43;;;23.40;92.70;;;;;;5028198;28;21153;-73
2023/07/11 06:53:21;;;;;;;5.90;2.77;;;23.50;92.60;;;;;;5031891;28;20457;-73
2023/07/11 06:55:52;;;;;;;7.00;2.80;;;23.60;92.20;;;;;;5032119;28;20424;-73
2023/07/11 06:58:18;;;;;;;7.10;3.13;;;23.70;91.50;;;;;;5032274;28;20448;-73
2023/07/11 07:00:50;;;;;;;3.33;2.37;;;24.10;90.60;;;;;;5031911;28;20488;-72
2023/07/11 07:03:16;;;;;;;5.53;3.60;;;24.10;91.10;;;;;;5032335;28;20427;-73
2023/07/11 07:05:53;;;;;;;4.90;2.60;;;24.20;90.80;;;;;;5032466;28;20418;-73
2023/07/11 07:08:19;;;;;;;4.47;2.10;;;24.40;90.00;;;;;;5037059;28;20246;-72
2023/07/11 07:10:47;;;;;;;5.03;2.07;;;24.60;90.10;;;;;;5033234;28;20424;-72
2023/07/11 07:13:13;;;;;;;6.00;2.43;;;24.70;88.80;;;;;;5033563;28;20460;-73
2023/07/11 07:15:38;;;;;;;8.03;2.73;;;24.90;88.30;;;;;;5036000;28;20772;-73
2023/07/11 07:18:04;;;;;;;5.50;2.70;;;25.10;88.20;;;;;;5033959;28;20435;-73
2023/07/11 07:20:29;;;;;;;7.70;3.10;;;25.40;86.20;;;;;;5040632;28;20216;-73
2023/07/11 07:22:55;;;;;;;7.40;2.93;;;25.60;86.70;;;;;;5030551;28;20209;-72
2023/07/11 07:25:21;;;;;;;6.40;2.73;;;25.80;85.90;;;;;;5021547;28;20186;-72
2023/07/11 07:27:46;;;;;;;4.93;2.93;;;26.00;84.00;;;;;;5032321;28;20619;-73
2023/07/11 07:30:12;;;;;;;8.70;2.80;;;26.30;82.90;;;;;;5031837;28;20240;-73
2023/07/11 07:32:38;;;;;;;7.03;2.90;;;26.50;82.50;;;;;;5030143;28;20284;-73
2023/07/11 07:35:04;;;;;;;6.23;2.60;;;26.80;81.30;;;;;;5031128;28;20265;-72
2023/07/11 07:37:30;;;;;;;4.03;2.20;;;27.20;81.60;;;;;;5030082;28;20196;-73
2023/07/11 07:39:56;;;;;;;4.03;2.40;;;27.40;79.60;;;;;;5023048;28;20418;-73
2023/07/11 07:42:22;;;;;;;4.67;2.53;;;27.70;79.20;;;;;;5030775;28;20194;-73
2023/07/11 07:44:48;;;;;;;5.22;2.45;;;28.30;78.00;;;;;;5030037;28;20240;-71
2023/07/11 07:47:13;;;;;;;5.18;2.80;;;28.80;76.30;;;;;;5030488;28;20251;-71
2023/07/11 07:49:39;;;;;;;7.50;2.80;;;29.60;74.50;;;;;;5030682;28;20182;-71
2023/07/11 07:52:05;;;;;;;5.30;3.38;;;30.10;72.90;;;;;;5029514;28;20642;-71
2023/07/11 07:54:30;;;;;;;5.72;2.70;;;30.70;70.70;;;;;;5028704;28;20198;-71
2023/07/11 07:56:56;;;;;;;5.45;3.05;;;31.60;68.90;;;;;;5030682;28;20197;-71
2023/07/11 07:59:22;;;;;;;5.40;3.15;;;32.10;66.70;;;;;;5030558;28;20673;-71
2023/07/11 08:01:47;;;;;;;3.58;2.38;;;32.70;66.30;;;;;;5029893;28;20174;-71
2023/07/11 08:04:13;;;;;;;5.72;2.50;;;33.00;64.70;;;;;;5029563;28;20205;-71
2023/07/11 08:06:38;;;;;;;7.90;3.15;;;33.30;64.10;;;;;;5029771;28;20674;-71
2023/07/11 08:09:04;;;;;;;11.73;4.47;;;33.50;63.30;;;;;;5035654;28;20190;-71
2023/07/11 08:11:29;;;;;;;4.32;2.53;;;33.20;63.10;;;;;;5030281;28;20291;-70
2023/07/11 08:13:55;;;;;;;3.42;2.70;;;33.20;63.50;;;;;;5030469;28;20206;-70
2023/07/11 08:16:21;;;;;;;6.05;2.90;;;32.50;64.80;;;;;;5030252;28;20189;-71
2023/07/11 08:18:46;;;;;;;5.03;3.20;;;33.00;65.00;;;;;;5030159;28;20616;-71
2023/07/11 08:21:12;;;;;;;7.22;3.70;;;33.50;63.90;;;;;;5026778;28;20186;-71
2023/07/11 08:23:38;;;;;;;4.50;2.80;;;34.50;61.00;;;;;;5026206;28;20586;-71
2023/07/11 08:26:03;;;;;;;7.45;3.58;;;34.50;60.50;;;;;;5030577;28;20520;-70
2023/07/11 08:28:29;;;;;;;5.85;4.05;;;34.40;61.30;;;;;;5030392;28;20505;-71
2023/07/11 08:30:54;;;;;;;4.13;2.70;;;34.60;61.20;;;;;;5030111;28;20174;-71
2023/07/11 08:33:20;;;;;;;4.22;2.45;;;34.60;61.30;;;;;;5030019;28;20666;-71
2023/07/11 08:35:46;;;;;;;5.32;3.30;;;34.00;62.50;;;;;;5030245;28;20182;-71
2023/07/11 08:38:11;;;;;;;7.20;3.30;;;33.80;61.90;;;;;;5029568;28;20359;-70
2023/07/11 08:40:45;;;;;;;10.02;4.25;;;34.20;61.80;;;;;;5021956;28;20193;-71
2023/07/11 08:43:28;;;;;;;6.72;3.08;;;34.50;61.40;;;;;;5029525;28;20573;-71
2023/07/11 08:46:01;;;;;;;9.43;3.25;;;34.60;61.40;;;;;;5030024;28;20654;-71
2023/07/11 08:48:30;;;;;;;4.90;3.40;;;34.50;61.90;;;;;;5029744;28;20208;-70
2023/07/11 08:51:35;;;;;;;4.60;3.25;;;35.00;61.30;;;;;;5029797;28;20197;-71
2023/07/11 08:54:10;;;;;;;5.32;3.42;;;35.20;61.00;;;;;;5025469;28;20239;-70
2023/07/11 08:56:39;;;;;;;3.60;2.40;;;34.90;61.20;;;;;;5023546;28;20657;-70
2023/07/11 08:59:14;;;;;;;4.78;3.00;;;34.60;60.10;;;;;;5030617;28;20174;-70
2023/07/11 09:01:56;;;;;;;5.43;3.38;;;34.60;60.80;;;;;;5034888;28;20645;-70
2023/07/11 09:04:22;;;;;;;6.72;3.28;;;35.00;61.60;;;;;;5033425;28;20185;-70
2023/07/11 09:06:55;;;;;;;10.23;3.70;;;34.90;62.70;;;;;;5037295;28;20213;-70
2023/07/11 09:09:22;;;;;;;4.88;3.70;;;34.80;63.50;;;;;;5035936;28;20189;-70
2023/07/11 09:11:53;;;;;;;7.13;4.03;;;34.60;63.30;;;;;;5039365;28;20211;-70
2023/07/11 09:14:54;;;;;;;6.55;3.85;;;35.00;62.00;;;;;;5050955;28;20205;-70
2023/07/11 09:17:45;;;;;;;6.22;3.50;;;35.10;61.00;;;;;;5035471;28;20239;-70
2023/07/11 09:20:38;;;;;;;7.00;2.58;;;34.60;60.30;;;;;;5050911;28;20181;-70
2023/07/11 09:23:22;;;;;;;13.02;4.38;;;34.50;62.50;;;;;;5017329;28;20174;-70
2023/07/11 09:25:49;;;;;;;5.10;2.78;;;34.40;60.20;;;;;;5025840;28;20182;-70
2023/07/11 09:28:23;;;;;;;15.48;3.83;;;34.80;60.30;;;;;;5029018;28;20641;-70
2023/07/11 09:31:01;;;;;;;7.13;3.47;;;35.00;59.70;;;;;;5031767;28;20192;-70
2023/07/11 09:33:38;;;;;;;7.88;3.38;;;34.90;59.30;;;;;;5034639;28;20715;-71
2023/07/11 09:36:42;;;;;;;14.13;3.75;;;35.00;58.90;;;;;;5030509;28;20227;-70
2023/07/11 09:39:29;;;;;;;5.45;3.03;;;34.80;58.80;;;;;;5040109;28;20193;-70
2023/07/11 09:42:35;;;;;;;9.48;3.10;;;35.00;57.30;;;;;;5049872;28;20191;-70
2023/07/11 09:45:09;;;;;;;8.02;3.10;;;34.90;56.40;;;;;;5050941;28;20180;-70
2023/07/11 09:47:35;;;;;;;7.35;4.20;;;34.90;57.10;;;;;;5050549;28;20185;-70
2023/07/11 09:50:31;;;;;;;7.93;4.53;;;34.70;57.70;;;;;;5040445;28;20213;-70
2023/07/11 09:53:00;;;;;;;6.32;3.35;;;34.50;58.20;;;;;;5007240;28;20268;-71
2023/07/11 09:55:34;;;;;;;6.22;3.35;;;34.80;58.10;;;;;;5035093;28;20181;-70
2023/07/11 09:58:01;;;;;;;14.77;3.22;;;34.40;58.20;;;;;;5043852;28;20181;-70
2023/07/11 10:00:27;;;;;;;5.25;3.00;;;34.80;58.60;;;;;;5047082;28;20173;-70
2023/07/11 10:02:53;;;;;;;5.60;3.35;;;34.90;58.70;;;;;;5049909;28;20525;-70
2023/07/11 10:05:23;;;;;;;5.80;3.38;;;34.90;59.10;;;;;;5050600;28;20192;-70
2023/07/11 10:08:17;;;;;;;9.93;4.60;;;34.80;58.70;;;;;;5039443;28;20182;-71
2023/07/11 10:10:54;;;;;;;5.93;3.90;;;35.10;58.50;;;;;;5037453;28;20200;-70
2023/07/11 10:13:20;;;;;;;11.70;3.72;;;35.30;58.80;;;;;;5047824;28;20815;-70
2023/07/11 10:15:53;;;;;;;4.70;3.42;;;35.10;59.10;;;;;;5041195;28;20264;-71
2023/07/11 10:18:23;;;;;;;4.65;3.55;;;35.00;58.80;;;;;;5047937;28;20697;-70
2023/07/11 10:21:06;;;;;;;5.95;3.67;;;34.90;59.90;;;;;;5054081;28;20192;-71
2023/07/11 10:23:34;;;;;;;5.15;3.00;;;35.00;60.00;;;;;;5046747;28;20874;-71
2023/07/11 10:26:09;;;;;;;7.18;4.38;;;34.80;59.30;;;;;;5042143;28;20198;-70
2023/07/11 10:28:39;;;;;;;5.60;3.13;;;34.90;59.40;;;;;;5045927;28;20186;-70
2023/07/11 10:31:23;;;;;;;6.20;3.92;;;34.60;59.80;;;;;;5034246;28;20741;-71
2023/07/11 10:33:59;;;;;;;8.07;3.42;;;34.20;60.50;;;;;;5018585;28;20210;-70
2023/07/11 10:36:33;;;;;;;4.60;2.70;;;33.60;63.30;;;;;;5031669;28;20192;-70
2023/07/11 10:39:12;;;;;;;6.38;3.88;;;33.80;62.10;;;;;;5034849;28;20201;-70
2023/07/11 10:41:57;;;;;;;9.18;3.40;;;33.80;62.20;;;;;;5040813;28;20185;-69
2023/07/11 10:44:28;;;;;;;10.30;4.68;;;33.40;62.70;;;;;;5042071;28;20198;-69
2023/07/11 10:46:55;;;;;;;6.90;4.05;;;33.30;63.50;;;;;;5046237;28;20650;-69
2023/07/11 10:49:49;;;;;;;7.88;3.33;;;33.20;64.00;;;;;;5053829;28;20213;-69
2023/07/11 10:52:24;;;;;;;14.52;4.82;;;33.60;64.10;;;;;;5052525;28;20652;-69
2023/07/11 10:54:59;;;;;;;9.00;4.28;;;33.80;62.90;;;;;;5046084;28;20213;-68
2023/07/11 10:57:51;;;;;;;7.97;3.67;;;33.90;62.50;;;;;;5052287;28;20195;-68
2023/07/11 11:00:17;;;;;;;9.15;3.95;;;33.70;63.10;;;;;;5045816;28;20660;-69
2023/07/11 11:02:56;;;;;;;9.50;3.53;;;33.70;63.20;;;;;;5042575;28;20189;-68
2023/07/11 11:05:53;;;;;;;9.38;3.50;;;33.40;62.90;;;;;;5033205;28;20223;-70
2023/07/11 11:08:48;;;;;;;4.00;2.63;;;33.00;64.40;;;;;;5038935;28;20188;-69
2023/07/11 11:11:34;;;;;;;9.80;3.95;;;33.30;65.30;;;;;;5032347;28;20236;-69
2023/07/11 11:14:43;;;;;;;6.78;4.05;;;33.40;64.70;;;;;;5034805;28;20852;-69
2023/07/11 11:17:25;;;;;;;20.30;4.13;;;33.60;64.30;;;;;;5018946;28;20197;-69
2023/07/11 11:20:09;;;;;;;6.28;3.90;;;33.90;63.90;;;;;;5047150;28;20197;-69
2023/07/11 11:22:43;;;;;;;23.77;3.70;;;33.80;63.10;;;;;;5043231;28;20174;-68
2023/07/11 11:25:43;;;;;;;7.35;3.92;;;33.70;63.80;;;;;;5036961;28;20525;-70
2023/07/11 11:28:26;;;;;;;8.48;3.60;;;34.00;62.50;;;;;;5037715;28;20194;-69
2023/07/11 11:31:09;;;;;;;6.03;3.60;;;33.90;63.10;;;;;;5034489;28;20201;-70
2023/07/11 11:33:57;;;;;;;8.20;3.58;;;33.70;64.40;;;;;;5035556;28;20239;-69
2023/07/11 11:36:37;;;;;;;5.60;3.40;;;33.70;63.10;;;;;;5034097;28;20560;-69
2023/07/11 11:39:42;;;;;;;9.05;4.05;;;33.60;62.80;;;;;;5047865;28;20185;-69
2023/07/11 11:42:20;;;;;;;6.82;4.38;;;33.40;63.20;;;;;;5047228;28;20205;-70
2023/07/11 11:44:56;;;;;;;4.78;3.00;;;33.90;62.40;;;;;;5031557;28;20197;-69
2023/07/11 11:47:23;;;;;;;7.15;3.03;;;34.00;62.00;;;;;;5039937;28;20267;-69
2023/07/11 11:49:49;;;;;;;4.90;2.65;;;34.30;62.20;;;;;;5031243;28;20173;-71
2023/07/11 11:52:15;;;;;;;6.40;3.25;;;34.60;60.20;;;;;;5039205;28;20545;-70
2023/07/11 11:54:46;;;;;;;6.45;3.00;;;34.60;61.00;;;;;;5044975;28;20205;-69
2023/07/11 11:57:31;;;;;;;12.55;3.38;;;34.50;60.70;;;;;;5034375;28;20409;-70
2023/07/11 11:59:58;;;;;;;6.03;3.45;;;34.60;60.40;;;;;;5047302;28;20173;-70
2023/07/11 12:02:34;;;;;;;4.88;2.85;;;34.70;60.20;;;;;;5050332;28;20739;-69
2023/07/11 12:05:06;;;;;;;4.05;2.63;;;34.80;61.20;;;;;;5050943;28;20189;-69
2023/07/11 12:07:38;;;;;;;6.30;3.35;;;35.10;59.20;;;;;;5040640;28;20182;-70
2023/07/11 12:10:08;;;;;;;6.07;2.72;;;35.00;58.70;;;;;;5034555;28;20193;-70
2023/07/11 12:12:34;;;;;;;5.97;3.17;;;34.90;59.50;;;;;;5050442;28;20177;-69
2023/07/11 12:15:19;;;;;;;10.82;3.25;;;35.10;58.20;;;;;;5040673;28;20183;-69
2023/07/11 12:17:47;;;;;;;6.75;3.70;;;35.10;57.50;;;;;;5024204;28;20181;-69
2023/07/11 12:20:25;;;;;;;7.50;3.72;;;35.20;58.20;;;;;;5029636;28;20197;-69
2023/07/11 12:22:50;;;;;;;6.43;3.55;;;34.90;58.90;;;;;;5027272;28;20669;-69
2023/07/11 12:25:23;;;;;;;7.60;3.88;;;34.70;59.10;;;;;;5037933;28;20193;-70
2023/07/11 12:28:01;;;;;;;5.97;2.92;;;35.00;57.90;;;;;;5035110;28;20269;-70
2023/07/11 12:30:26;;;;;;;7.30;3.13;;;35.30;57.00;;;;;;5030259;28;20623;-69
2023/07/11 12:32:54;;;;;;;4.75;3.20;;;35.50;56.70;;;;;;5048603;28;20209;-68
2023/07/11 12:35:25;;;;;;;10.82;4.38;;;35.70;57.30;;;;;;5051722;28;20177;-69
2023/07/11 12:37:58;;;;;;;4.15;2.42;;;35.80;58.10;;;;;;5037804;28;20273;-69
2023/07/11 12:40:51;;;;;;;12.60;3.45;;;35.90;57.80;;;;;;5052531;28;20248;-71
2023/07/11 12:43:28;;;;;;;3.88;2.40;;;35.60;56.70;;;;;;5031614;28;20196;-70
2023/07/11 12:46:26;;;;;;;7.55;3.80;;;35.10;56.50;;;;;;5053465;28;20237;-71
2023/07/11 12:48:53;;;;;;;9.00;3.55;;;35.00;57.40;;;;;;5047980;28;20606;-70
2023/07/11 12:51:30;;;;;;;8.13;4.60;;;35.00;55.90;;;;;;5037950;28;20185;-69
2023/07/11 12:54:10;;;;;;;6.40;3.65;;;34.80;55.90;;;;;;5032413;28;20217;-68
2023/07/11 12:56:45;;;;;;;5.93;3.60;;;34.50;56.80;;;;;;5026065;28;20173;-69
2023/07/11 12:59:25;;;;;;;9.57;3.47;;;34.10;57.30;;;;;;5036963;28;20226;-69
2023/07/11 13:01:52;;;;;;;5.70;3.10;;;34.10;57.60;;;;;;5023373;28;20173;-69